sensor_id;sensor_type;location;lat;lon;timestamp;P1;durP1;ratioP1;P2;durP2;ratioP2
77202;SDS011;66327;50.096;8.498;2023-12-07T00:00:23;15.55;;;7.15;;
77202;SDS011;66327;50.096;8.498;2023-12-07T00:02:49;12.95;;;6.43;;
77202;SDS011;66327;50.096;8.498;2023-12-07T00:05:16;12.82;;;6.53;;
77202;SDS011;66327;50.096;8.498;2023-12-07T00:07:42;13.23;;;7.10;;
77202;SDS011;66327;50.096;8.498;2023-12-07T00:10:08;11.57;;;6.35;;
77202;SDS011;66327;50.096;8.498;2023-12-07T00:12:35;14.77;;;6.45;;
77202;SDS011;66327;50.096;8.498;2023-12-07T00:15:01;14.73;;;6.15;;
77202;SDS011;66327;50.096;8.498;2023-12-07T00:17:28;16.55;;;7.18;;
77202;SDS011;66327;50.096;8.498;2023-12-07T00:19:55;12.43;;;6.32;;
77202;SDS011;66327;50.096;8.498;2023-12-07T00:22:22;14.85;;;7.38;;
77202;SDS011;66327;50.096;8.498;2023-12-07T00:24:51;17.48;;;7.25;;
77202;SDS011;66327;50.096;8.498;2023-12-07T00:27:18;16.27;;;6.95;;
77202;SDS011;66327;50.096;8.498;2023-12-07T00:29:44;14.63;;;6.82;;
77202;SDS011;66327;50.096;8.498;2023-12-07T00:32:10;13.38;;;6.35;;
77202;SDS011;66327;50.096;8.498;2023-12-07T00:34:36;16.35;;;7.10;;
77202;SDS011;66327;50.096;8.498;2023-12-07T00:37:03;10.70;;;6.45;;
77202;SDS011;66327;50.096;8.498;2023-12-07T00:39:29;15.90;;;7.20;;
77202;SDS011;66327;50.096;8.498;2023-12-07T00:41:56;18.10;;;7.63;;
77202;SDS011;66327;50.096;8.498;2023-12-07T00:44:22;14.27;;;7.00;;
77202;SDS011;66327;50.096;8.498;2023-12-07T00:46:48;15.75;;;6.57;;
77202;SDS011;66327;50.096;8.498;2023-12-07T00:49:15;14.40;;;6.55;;
77202;SDS011;66327;50.096;8.498;2023-12-07T00:51:41;16.58;;;7.10;;
77202;SDS011;66327;50.096;8.498;2023-12-07T00:54:08;13.15;;;7.18;;
77202;SDS011;66327;50.096;8.498;2023-12-07T00:56:34;15.82;;;7.82;;
77202;SDS011;66327;50.096;8.498;2023-12-07T00:59:01;15.30;;;7.07;;
77202;SDS011;66327;50.096;8.498;2023-12-07T01:01:27;17.73;;;7.72;;
77202;SDS011;66327;50.096;8.498;2023-12-07T01:03:54;16.08;;;7.88;;
77202;SDS011;66327;50.096;8.498;2023-12-07T01:06:20;14.23;;;7.55;;
77202;SDS011;66327;50.096;8.498;2023-12-07T01:08:47;16.33;;;7.47;;
77202;SDS011;66327;50.096;8.498;2023-12-07T01:11:13;17.27;;;7.03;;
77202;SDS011;66327;50.096;8.498;2023-12-07T01:13:39;10.95;;;6.07;;
77202;SDS011;66327;50.096;8.498;2023-12-07T01:16:06;13.43;;;6.60;;
77202;SDS011;66327;50.096;8.498;2023-12-07T01:18:32;15.65;;;7.30;;
77202;SDS011;66327;50.096;8.498;2023-12-07T01:20:59;16.00;;;7.68;;
77202;SDS011;66327;50.096;8.498;2023-12-07T01:23:25;11.93;;;6.35;;
77202;SDS011;66327;50.096;8.498;2023-12-07T01:25:52;13.75;;;6.40;;
77202;SDS011;66327;50.096;8.498;2023-12-07T01:28:18;12.52;;;6.20;;
77202;SDS011;66327;50.096;8.498;2023-12-07T01:30:44;11.50;;;6.00;;
77202;SDS011;66327;50.096;8.498;2023-12-07T01:33:10;14.95;;;5.93;;
77202;SDS011;66327;50.096;8.498;2023-12-07T01:35:37;9.25;;;5.00;;
77202;SDS011;66327;50.096;8.498;2023-12-07T01:38:03;12.95;;;6.47;;
77202;SDS011;66327;50.096;8.498;2023-12-07T01:40:30;16.27;;;6.75;;
77202;SDS011;66327;50.096;8.498;2023-12-07T01:42:56;14.68;;;6.63;;
77202;SDS011;66327;50.096;8.498;2023-12-07T01:45:22;20.80;;;9.18;;
77202;SDS011;66327;50.096;8.498;2023-12-07T01:47:50;14.80;;;7.28;;
77202;SDS011;66327;50.096;8.498;2023-12-07T01:50:17;13.30;;;6.43;;
77202;SDS011;66327;50.096;8.498;2023-12-07T01:52:45;12.75;;;5.90;;
77202;SDS011;66327;50.096;8.498;2023-12-07T01:55:13;9.40;;;5.30;;
77202;SDS011;66327;50.096;8.498;2023-12-07T01:57:40;16.85;;;7.03;;
77202;SDS011;66327;50.096;8.498;2023-12-07T02:00:07;14.13;;;7.55;;
77202;SDS011;66327;50.096;8.498;2023-12-07T02:02:35;9.68;;;5.75;;
77202;SDS011;66327;50.096;8.498;2023-12-07T02:05:01;8.57;;;5.55;;
77202;SDS011;66327;50.096;8.498;2023-12-07T02:07:28;12.38;;;5.60;;
77202;SDS011;66327;50.096;8.498;2023-12-07T02:09:54;15.38;;;6.45;;
77202;SDS011;66327;50.096;8.498;2023-12-07T02:12:21;14.45;;;7.20;;
77202;SDS011;66327;50.096;8.498;2023-12-07T02:14:47;14.85;;;6.00;;
77202;SDS011;66327;50.096;8.498;2023-12-07T02:17:15;16.70;;;6.70;;
77202;SDS011;66327;50.096;8.498;2023-12-07T02:22:17;13.38;;;5.43;;
77202;SDS011;66327;50.096;8.498;2023-12-07T02:24:47;8.10;;;4.70;;
77202;SDS011;66327;50.096;8.498;2023-12-07T02:27:14;11.68;;;5.57;;
77202;SDS011;66327;50.096;8.498;2023-12-07T02:29:41;11.50;;;5.15;;
77202;SDS011;66327;50.096;8.498;2023-12-07T02:32:07;11.90;;;7.07;;
77202;SDS011;66327;50.096;8.498;2023-12-07T02:34:33;12.63;;;5.43;;
77202;SDS011;66327;50.096;8.498;2023-12-07T02:37:00;12.43;;;5.20;;
77202;SDS011;66327;50.096;8.498;2023-12-07T02:39:27;11.70;;;5.68;;
77202;SDS011;66327;50.096;8.498;2023-12-07T02:41:54;12.18;;;5.78;;
77202;SDS011;66327;50.096;8.498;2023-12-07T02:44:21;9.15;;;5.38;;
77202;SDS011;66327;50.096;8.498;2023-12-07T02:46:47;10.35;;;4.80;;
77202;SDS011;66327;50.096;8.498;2023-12-07T02:49:14;10.80;;;5.97;;
77202;SDS011;66327;50.096;8.498;2023-12-07T02:51:40;12.50;;;5.88;;
77202;SDS011;66327;50.096;8.498;2023-12-07T02:54:06;10.88;;;4.80;;
77202;SDS011;66327;50.096;8.498;2023-12-07T02:56:33;12.93;;;6.55;;
77202;SDS011;66327;50.096;8.498;2023-12-07T02:58:59;10.23;;;6.07;;
77202;SDS011;66327;50.096;8.498;2023-12-07T03:01:25;11.98;;;6.53;;
77202;SDS011;66327;50.096;8.498;2023-12-07T03:03:52;14.23;;;5.88;;
77202;SDS011;66327;50.096;8.498;2023-12-07T03:06:18;10.38;;;5.78;;
77202;SDS011;66327;50.096;8.498;2023-12-07T03:08:45;14.70;;;6.25;;
77202;SDS011;66327;50.096;8.498;2023-12-07T03:11:12;17.15;;;6.03;;
77202;SDS011;66327;50.096;8.498;2023-12-07T03:13:38;10.80;;;5.95;;
77202;SDS011;66327;50.096;8.498;2023-12-07T03:16:08;13.38;;;6.97;;
77202;SDS011;66327;50.096;8.498;2023-12-07T03:18:36;13.93;;;5.65;;
77202;SDS011;66327;50.096;8.498;2023-12-07T03:21:02;17.77;;;6.43;;
77202;SDS011;66327;50.096;8.498;2023-12-07T03:23:29;13.02;;;6.35;;
77202;SDS011;66327;50.096;8.498;2023-12-07T03:25:56;14.18;;;5.97;;
77202;SDS011;66327;50.096;8.498;2023-12-07T03:28:22;14.32;;;6.68;;
77202;SDS011;66327;50.096;8.498;2023-12-07T03:30:48;14.43;;;5.90;;
77202;SDS011;66327;50.096;8.498;2023-12-07T03:33:15;13.88;;;6.85;;
77202;SDS011;66327;50.096;8.498;2023-12-07T03:35:41;14.77;;;7.40;;
77202;SDS011;66327;50.096;8.498;2023-12-07T03:38:07;13.20;;;6.97;;
77202;SDS011;66327;50.096;8.498;2023-12-07T03:40:34;15.68;;;6.80;;
77202;SDS011;66327;50.096;8.498;2023-12-07T03:43:00;14.15;;;5.72;;
77202;SDS011;66327;50.096;8.498;2023-12-07T03:45:27;14.30;;;6.00;;
77202;SDS011;66327;50.096;8.498;2023-12-07T03:47:54;15.70;;;6.70;;
77202;SDS011;66327;50.096;8.498;2023-12-07T03:50:20;12.25;;;6.47;;
77202;SDS011;66327;50.096;8.498;2023-12-07T03:52:47;16.63;;;7.22;;
77202;SDS011;66327;50.096;8.498;2023-12-07T03:55:13;11.85;;;6.13;;
77202;SDS011;66327;50.096;8.498;2023-12-07T03:57:40;15.02;;;7.30;;
77202;SDS011;66327;50.096;8.498;2023-12-07T04:00:07;13.32;;;5.93;;
77202;SDS011;66327;50.096;8.498;2023-12-07T04:02:34;13.52;;;5.82;;
77202;SDS011;66327;50.096;8.498;2023-12-07T04:05:00;17.83;;;6.80;;
77202;SDS011;66327;50.096;8.498;2023-12-07T04:07:28;16.77;;;6.85;;
77202;SDS011;66327;50.096;8.498;2023-12-07T04:09:56;11.50;;;6.55;;
77202;SDS011;66327;50.096;8.498;2023-12-07T04:12:26;10.40;;;5.20;;
77202;SDS011;66327;50.096;8.498;2023-12-07T04:14:52;15.70;;;7.57;;
77202;SDS011;66327;50.096;8.498;2023-12-07T04:17:18;14.80;;;6.75;;
77202;SDS011;66327;50.096;8.498;2023-12-07T04:19:44;17.27;;;7.82;;
77202;SDS011;66327;50.096;8.498;2023-12-07T04:22:11;12.35;;;6.53;;
77202;SDS011;66327;50.096;8.498;2023-12-07T04:24:37;13.52;;;7.20;;
77202;SDS011;66327;50.096;8.498;2023-12-07T04:27:04;18.63;;;7.85;;
77202;SDS011;66327;50.096;8.498;2023-12-07T04:29:30;17.75;;;7.22;;
77202;SDS011;66327;50.096;8.498;2023-12-07T04:31:56;12.55;;;5.90;;
77202;SDS011;66327;50.096;8.498;2023-12-07T04:34:23;16.38;;;7.22;;
77202;SDS011;66327;50.096;8.498;2023-12-07T04:36:49;14.88;;;7.50;;
77202;SDS011;66327;50.096;8.498;2023-12-07T04:39:16;16.17;;;7.10;;
77202;SDS011;66327;50.096;8.498;2023-12-07T04:41:42;12.05;;;6.88;;
77202;SDS011;66327;50.096;8.498;2023-12-07T04:44:09;14.57;;;6.93;;
77202;SDS011;66327;50.096;8.498;2023-12-07T04:46:35;14.82;;;7.38;;
77202;SDS011;66327;50.096;8.498;2023-12-07T04:49:02;14.15;;;6.15;;
77202;SDS011;66327;50.096;8.498;2023-12-07T04:51:29;12.18;;;5.65;;
77202;SDS011;66327;50.096;8.498;2023-12-07T04:53:55;15.30;;;6.25;;
77202;SDS011;66327;50.096;8.498;2023-12-07T04:56:34;13.70;;;6.60;;
77202;SDS011;66327;50.096;8.498;2023-12-07T04:59:01;19.13;;;6.57;;
77202;SDS011;66327;50.096;8.498;2023-12-07T05:01:27;11.90;;;5.80;;
77202;SDS011;66327;50.096;8.498;2023-12-07T05:03:53;13.25;;;6.55;;
77202;SDS011;66327;50.096;8.498;2023-12-07T05:06:20;11.13;;;5.65;;
77202;SDS011;66327;50.096;8.498;2023-12-07T05:08:46;13.23;;;6.93;;
77202;SDS011;66327;50.096;8.498;2023-12-07T05:11:13;12.90;;;6.55;;
77202;SDS011;66327;50.096;8.498;2023-12-07T05:13:39;10.75;;;5.93;;
77202;SDS011;66327;50.096;8.498;2023-12-07T05:16:05;13.52;;;6.15;;
77202;SDS011;66327;50.096;8.498;2023-12-07T05:18:32;11.52;;;5.80;;
77202;SDS011;66327;50.096;8.498;2023-12-07T05:20:58;12.68;;;6.70;;
77202;SDS011;66327;50.096;8.498;2023-12-07T05:23:25;14.23;;;7.88;;
77202;SDS011;66327;50.096;8.498;2023-12-07T05:25:51;10.95;;;6.10;;
77202;SDS011;66327;50.096;8.498;2023-12-07T05:28:17;12.00;;;6.15;;
77202;SDS011;66327;50.096;8.498;2023-12-07T05:30:44;13.43;;;5.63;;
77202;SDS011;66327;50.096;8.498;2023-12-07T05:33:12;12.32;;;6.18;;
77202;SDS011;66327;50.096;8.498;2023-12-07T05:35:39;11.20;;;5.72;;
77202;SDS011;66327;50.096;8.498;2023-12-07T05:38:05;16.08;;;7.55;;
77202;SDS011;66327;50.096;8.498;2023-12-07T05:40:32;15.52;;;6.30;;
77202;SDS011;66327;50.096;8.498;2023-12-07T05:42:59;14.60;;;5.57;;
77202;SDS011;66327;50.096;8.498;2023-12-07T05:45:26;13.80;;;6.50;;
77202;SDS011;66327;50.096;8.498;2023-12-07T05:47:52;13.52;;;6.55;;
77202;SDS011;66327;50.096;8.498;2023-12-07T05:50:19;21.00;;;7.70;;
77202;SDS011;66327;50.096;8.498;2023-12-07T05:52:46;18.08;;;7.97;;
77202;SDS011;66327;50.096;8.498;2023-12-07T05:55:13;20.17;;;8.48;;
77202;SDS011;66327;50.096;8.498;2023-12-07T05:57:39;16.42;;;7.75;;
77202;SDS011;66327;50.096;8.498;2023-12-07T06:00:06;14.88;;;7.18;;
77202;SDS011;66327;50.096;8.498;2023-12-07T06:02:35;15.88;;;6.78;;
77202;SDS011;66327;50.096;8.498;2023-12-07T06:05:02;18.55;;;7.75;;
77202;SDS011;66327;50.096;8.498;2023-12-07T06:07:30;15.55;;;6.82;;
77202;SDS011;66327;50.096;8.498;2023-12-07T06:09:56;14.32;;;7.43;;
77202;SDS011;66327;50.096;8.498;2023-12-07T06:12:23;14.45;;;6.70;;
77202;SDS011;66327;50.096;8.498;2023-12-07T06:14:51;15.77;;;6.88;;
77202;SDS011;66327;50.096;8.498;2023-12-07T06:17:19;13.32;;;6.53;;
77202;SDS011;66327;50.096;8.498;2023-12-07T06:19:45;15.57;;;6.90;;
77202;SDS011;66327;50.096;8.498;2023-12-07T06:22:12;16.83;;;8.00;;
77202;SDS011;66327;50.096;8.498;2023-12-07T06:24:40;16.38;;;7.47;;
77202;SDS011;66327;50.096;8.498;2023-12-07T06:27:06;14.98;;;7.47;;
77202;SDS011;66327;50.096;8.498;2023-12-07T06:29:33;13.82;;;6.60;;
77202;SDS011;66327;50.096;8.498;2023-12-07T06:31:59;12.18;;;6.95;;
77202;SDS011;66327;50.096;8.498;2023-12-07T06:34:26;17.88;;;7.60;;
77202;SDS011;66327;50.096;8.498;2023-12-07T06:36:54;16.50;;;7.35;;
77202;SDS011;66327;50.096;8.498;2023-12-07T06:39:21;16.00;;;7.55;;
77202;SDS011;66327;50.096;8.498;2023-12-07T06:41:47;18.80;;;9.27;;
77202;SDS011;66327;50.096;8.498;2023-12-07T06:44:13;17.90;;;9.55;;
77202;SDS011;66327;50.096;8.498;2023-12-07T06:46:39;19.15;;;9.18;;
77202;SDS011;66327;50.096;8.498;2023-12-07T06:49:06;18.80;;;8.35;;
77202;SDS011;66327;50.096;8.498;2023-12-07T06:51:32;13.30;;;7.63;;
77202;SDS011;66327;50.096;8.498;2023-12-07T06:53:59;13.85;;;7.03;;
77202;SDS011;66327;50.096;8.498;2023-12-07T06:56:25;14.73;;;7.93;;
77202;SDS011;66327;50.096;8.498;2023-12-07T06:58:51;16.17;;;7.40;;
77202;SDS011;66327;50.096;8.498;2023-12-07T07:01:18;15.18;;;6.53;;
77202;SDS011;66327;50.096;8.498;2023-12-07T07:03:44;15.93;;;7.07;;
77202;SDS011;66327;50.096;8.498;2023-12-07T07:06:10;14.23;;;6.47;;
77202;SDS011;66327;50.096;8.498;2023-12-07T07:08:37;20.33;;;6.88;;
77202;SDS011;66327;50.096;8.498;2023-12-07T07:11:09;12.85;;;6.85;;
77202;SDS011;66327;50.096;8.498;2023-12-07T07:13:37;17.65;;;6.63;;
77202;SDS011;66327;50.096;8.498;2023-12-07T07:16:03;16.50;;;6.82;;
77202;SDS011;66327;50.096;8.498;2023-12-07T07:18:33;12.90;;;7.10;;
77202;SDS011;66327;50.096;8.498;2023-12-07T07:21:01;15.70;;;6.18;;
77202;SDS011;66327;50.096;8.498;2023-12-07T07:23:28;9.98;;;5.32;;
77202;SDS011;66327;50.096;8.498;2023-12-07T07:25:54;14.52;;;5.80;;
77202;SDS011;66327;50.096;8.498;2023-12-07T07:28:20;15.40;;;6.55;;
77202;SDS011;66327;50.096;8.498;2023-12-07T07:30:46;14.18;;;6.25;;
77202;SDS011;66327;50.096;8.498;2023-12-07T07:33:13;18.83;;;7.05;;
77202;SDS011;66327;50.096;8.498;2023-12-07T07:35:39;15.43;;;6.70;;
77202;SDS011;66327;50.096;8.498;2023-12-07T07:38:05;13.73;;;6.35;;
77202;SDS011;66327;50.096;8.498;2023-12-07T07:40:31;11.73;;;6.00;;
77202;SDS011;66327;50.096;8.498;2023-12-07T07:42:58;13.73;;;6.03;;
77202;SDS011;66327;50.096;8.498;2023-12-07T07:45:25;14.10;;;6.78;;
77202;SDS011;66327;50.096;8.498;2023-12-07T07:47:51;15.55;;;6.32;;
77202;SDS011;66327;50.096;8.498;2023-12-07T07:50:18;12.73;;;5.85;;
77202;SDS011;66327;50.096;8.498;2023-12-07T07:52:44;14.88;;;6.60;;
77202;SDS011;66327;50.096;8.498;2023-12-07T07:55:11;11.85;;;6.25;;
77202;SDS011;66327;50.096;8.498;2023-12-07T07:57:38;12.27;;;6.43;;
77202;SDS011;66327;50.096;8.498;2023-12-07T08:00:05;11.25;;;5.72;;
77202;SDS011;66327;50.096;8.498;2023-12-07T08:02:31;15.38;;;6.80;;
77202;SDS011;66327;50.096;8.498;2023-12-07T08:04:58;14.35;;;7.40;;
77202;SDS011;66327;50.096;8.498;2023-12-07T08:07:26;18.65;;;7.78;;
77202;SDS011;66327;50.096;8.498;2023-12-07T08:09:53;15.82;;;7.10;;
77202;SDS011;66327;50.096;8.498;2023-12-07T08:12:20;13.38;;;6.88;;
77202;SDS011;66327;50.096;8.498;2023-12-07T08:14:49;19.10;;;8.00;;
77202;SDS011;66327;50.096;8.498;2023-12-07T08:17:15;13.68;;;6.97;;
77202;SDS011;66327;50.096;8.498;2023-12-07T08:19:42;19.80;;;7.57;;
77202;SDS011;66327;50.096;8.498;2023-12-07T08:22:08;16.83;;;8.13;;
77202;SDS011;66327;50.096;8.498;2023-12-07T08:24:35;17.33;;;8.23;;
77202;SDS011;66327;50.096;8.498;2023-12-07T08:27:03;15.23;;;7.50;;
77202;SDS011;66327;50.096;8.498;2023-12-07T08:29:29;19.00;;;8.98;;
77202;SDS011;66327;50.096;8.498;2023-12-07T08:31:56;17.60;;;7.90;;
77202;SDS011;66327;50.096;8.498;2023-12-07T08:34:22;17.05;;;7.85;;
77202;SDS011;66327;50.096;8.498;2023-12-07T08:36:49;19.23;;;8.63;;
77202;SDS011;66327;50.096;8.498;2023-12-07T08:39:16;16.27;;;7.97;;
77202;SDS011;66327;50.096;8.498;2023-12-07T08:41:42;16.00;;;8.18;;
77202;SDS011;66327;50.096;8.498;2023-12-07T08:44:08;22.40;;;8.25;;
77202;SDS011;66327;50.096;8.498;2023-12-07T08:46:34;16.60;;;7.75;;
77202;SDS011;66327;50.096;8.498;2023-12-07T08:49:01;15.88;;;6.95;;
77202;SDS011;66327;50.096;8.498;2023-12-07T08:51:28;17.17;;;8.63;;
77202;SDS011;66327;50.096;8.498;2023-12-07T08:53:55;21.38;;;8.98;;
77202;SDS011;66327;50.096;8.498;2023-12-07T08:56:22;18.13;;;7.18;;
77202;SDS011;66327;50.096;8.498;2023-12-07T08:58:48;17.10;;;8.27;;
77202;SDS011;66327;50.096;8.498;2023-12-07T09:01:15;20.38;;;8.52;;
77202;SDS011;66327;50.096;8.498;2023-12-07T09:03:55;16.02;;;7.95;;
77202;SDS011;66327;50.096;8.498;2023-12-07T09:06:21;17.17;;;8.35;;
77202;SDS011;66327;50.096;8.498;2023-12-07T09:08:48;16.83;;;9.60;;
77202;SDS011;66327;50.096;8.498;2023-12-07T09:11:14;21.02;;;9.93;;
77202;SDS011;66327;50.096;8.498;2023-12-07T09:13:40;18.00;;;8.32;;
77202;SDS011;66327;50.096;8.498;2023-12-07T09:16:07;23.13;;;9.18;;
77202;SDS011;66327;50.096;8.498;2023-12-07T09:18:33;20.33;;;8.43;;
77202;SDS011;66327;50.096;8.498;2023-12-07T09:21:00;18.48;;;9.02;;
77202;SDS011;66327;50.096;8.498;2023-12-07T09:23:26;22.88;;;8.50;;
77202;SDS011;66327;50.096;8.498;2023-12-07T09:25:53;23.50;;;9.60;;
77202;SDS011;66327;50.096;8.498;2023-12-07T09:28:19;20.33;;;7.90;;
77202;SDS011;66327;50.096;8.498;2023-12-07T09:30:46;21.52;;;9.20;;
77202;SDS011;66327;50.096;8.498;2023-12-07T09:33:14;8.13;;;4.30;;
77202;SDS011;66327;50.096;8.498;2023-12-07T09:35:43;12.68;;;6.50;;
77202;SDS011;66327;50.096;8.498;2023-12-07T09:38:09;8.20;;;3.22;;
77202;SDS011;66327;50.096;8.498;2023-12-07T09:40:36;24.02;;;8.43;;
77202;SDS011;66327;50.096;8.498;2023-12-07T09:43:02;20.80;;;6.80;;
77202;SDS011;66327;50.096;8.498;2023-12-07T09:45:29;22.50;;;8.85;;
77202;SDS011;66327;50.096;8.498;2023-12-07T09:47:57;11.38;;;6.50;;
77202;SDS011;66327;50.096;8.498;2023-12-07T09:50:25;17.08;;;5.78;;
77202;SDS011;66327;50.096;8.498;2023-12-07T09:52:52;20.20;;;8.25;;
77202;SDS011;66327;50.096;8.498;2023-12-07T09:55:32;10.13;;;6.15;;
77202;SDS011;66327;50.096;8.498;2023-12-07T09:58:00;11.95;;;6.55;;
77202;SDS011;66327;50.096;8.498;2023-12-07T10:00:26;24.50;;;8.45;;
77202;SDS011;66327;50.096;8.498;2023-12-07T10:02:53;16.95;;;8.35;;
77202;SDS011;66327;50.096;8.498;2023-12-07T10:05:20;18.77;;;7.20;;
77202;SDS011;66327;50.096;8.498;2023-12-07T10:07:48;22.10;;;7.38;;
77202;SDS011;66327;50.096;8.498;2023-12-07T10:10:15;19.13;;;7.43;;
77202;SDS011;66327;50.096;8.498;2023-12-07T10:15:14;16.33;;;8.13;;
77202;SDS011;66327;50.096;8.498;2023-12-07T10:17:45;21.02;;;8.57;;
77202;SDS011;66327;50.096;8.498;2023-12-07T10:20:17;19.58;;;7.53;;
77202;SDS011;66327;50.096;8.498;2023-12-07T10:22:45;25.13;;;10.38;;
77202;SDS011;66327;50.096;8.498;2023-12-07T10:25:11;25.23;;;9.50;;
77202;SDS011;66327;50.096;8.498;2023-12-07T10:27:39;22.75;;;8.57;;
77202;SDS011;66327;50.096;8.498;2023-12-07T10:30:08;24.63;;;10.10;;
77202;SDS011;66327;50.096;8.498;2023-12-07T10:35:01;16.40;;;7.78;;
77202;SDS011;66327;50.096;8.498;2023-12-07T10:37:27;18.80;;;7.85;;
77202;SDS011;66327;50.096;8.498;2023-12-07T10:39:54;22.55;;;9.20;;
77202;SDS011;66327;50.096;8.498;2023-12-07T10:42:22;20.63;;;8.68;;
77202;SDS011;66327;50.096;8.498;2023-12-07T10:44:50;12.57;;;6.88;;
77202;SDS011;66327;50.096;8.498;2023-12-07T10:47:19;22.10;;;9.73;;
77202;SDS011;66327;50.096;8.498;2023-12-07T10:49:46;24.55;;;10.20;;
77202;SDS011;66327;50.096;8.498;2023-12-07T10:52:13;26.05;;;8.57;;
77202;SDS011;66327;50.096;8.498;2023-12-07T10:54:50;27.50;;;10.05;;
77202;SDS011;66327;50.096;8.498;2023-12-07T10:57:17;27.35;;;10.70;;
77202;SDS011;66327;50.096;8.498;2023-12-07T10:59:45;27.15;;;8.32;;
77202;SDS011;66327;50.096;8.498;2023-12-07T11:02:12;34.63;;;11.68;;
77202;SDS011;66327;50.096;8.498;2023-12-07T11:04:43;23.42;;;9.45;;
77202;SDS011;66327;50.096;8.498;2023-12-07T11:07:11;35.97;;;14.02;;
77202;SDS011;66327;50.096;8.498;2023-12-07T11:09:39;27.13;;;9.65;;
77202;SDS011;66327;50.096;8.498;2023-12-07T11:12:11;26.70;;;9.85;;
77202;SDS011;66327;50.096;8.498;2023-12-07T11:14:38;16.02;;;6.38;;
77202;SDS011;66327;50.096;8.498;2023-12-07T11:17:05;12.70;;;6.70;;
77202;SDS011;66327;50.096;8.498;2023-12-07T11:24:32;19.27;;;8.80;;
77202;SDS011;66327;50.096;8.498;2023-12-07T11:26:58;23.00;;;9.60;;
77202;SDS011;66327;50.096;8.498;2023-12-07T11:29:25;12.18;;;4.63;;
77202;SDS011;66327;50.096;8.498;2023-12-07T11:31:55;25.30;;;9.95;;
77202;SDS011;66327;50.096;8.498;2023-12-07T11:34:35;20.27;;;7.43;;
77202;SDS011;66327;50.096;8.498;2023-12-07T11:37:01;29.67;;;10.75;;
77202;SDS011;66327;50.096;8.498;2023-12-07T11:39:34;13.55;;;6.15;;
77202;SDS011;66327;50.096;8.498;2023-12-07T11:42:05;10.88;;;5.28;;
77202;SDS011;66327;50.096;8.498;2023-12-07T11:44:33;19.75;;;8.57;;
77202;SDS011;66327;50.096;8.498;2023-12-07T11:46:59;28.15;;;10.50;;
77202;SDS011;66327;50.096;8.498;2023-12-07T11:49:26;16.60;;;7.38;;
77202;SDS011;66327;50.096;8.498;2023-12-07T11:52:01;22.75;;;9.68;;
77202;SDS011;66327;50.096;8.498;2023-12-07T11:54:37;28.42;;;9.23;;
77202;SDS011;66327;50.096;8.498;2023-12-07T11:57:04;27.60;;;10.55;;
77202;SDS011;66327;50.096;8.498;2023-12-07T11:59:30;25.90;;;9.55;;
77202;SDS011;66327;50.096;8.498;2023-12-07T12:01:59;28.23;;;9.68;;
77202;SDS011;66327;50.096;8.498;2023-12-07T12:04:27;32.65;;;10.55;;
77202;SDS011;66327;50.096;8.498;2023-12-07T12:06:54;28.38;;;10.70;;
77202;SDS011;66327;50.096;8.498;2023-12-07T12:09:20;32.40;;;9.63;;
77202;SDS011;66327;50.096;8.498;2023-12-07T12:11:57;23.42;;;9.02;;
77202;SDS011;66327;50.096;8.498;2023-12-07T12:14:27;14.10;;;5.80;;
77202;SDS011;66327;50.096;8.498;2023-12-07T12:16:54;23.75;;;7.95;;
77202;SDS011;66327;50.096;8.498;2023-12-07T12:19:22;24.55;;;9.63;;
77202;SDS011;66327;50.096;8.498;2023-12-07T12:21:58;26.23;;;10.10;;
77202;SDS011;66327;50.096;8.498;2023-12-07T12:24:28;30.77;;;9.82;;
77202;SDS011;66327;50.096;8.498;2023-12-07T12:26:55;23.35;;;9.35;;
77202;SDS011;66327;50.096;8.498;2023-12-07T12:29:21;35.05;;;10.82;;
77202;SDS011;66327;50.096;8.498;2023-12-07T12:31:58;28.08;;;9.65;;
77202;SDS011;66327;50.096;8.498;2023-12-07T12:34:25;18.30;;;6.53;;
77202;SDS011;66327;50.096;8.498;2023-12-07T12:36:55;34.55;;;11.40;;
77202;SDS011;66327;50.096;8.498;2023-12-07T12:39:26;30.95;;;10.90;;
77202;SDS011;66327;50.096;8.498;2023-12-07T12:41:55;28.73;;;10.50;;
77202;SDS011;66327;50.096;8.498;2023-12-07T12:44:21;29.15;;;9.90;;
77202;SDS011;66327;50.096;8.498;2023-12-07T12:47:01;36.33;;;12.18;;
77202;SDS011;66327;50.096;8.498;2023-12-07T12:49:36;14.27;;;5.22;;
77202;SDS011;66327;50.096;8.498;2023-12-07T12:52:03;26.23;;;10.95;;
77202;SDS011;66327;50.096;8.498;2023-12-07T12:54:31;16.17;;;6.65;;
77202;SDS011;66327;50.096;8.498;2023-12-07T12:56:58;30.30;;;11.07;;
77202;SDS011;66327;50.096;8.498;2023-12-07T12:59:25;23.13;;;8.77;;
77202;SDS011;66327;50.096;8.498;2023-12-07T13:01:51;31.88;;;10.38;;
77202;SDS011;66327;50.096;8.498;2023-12-07T13:04:17;22.98;;;10.23;;
77202;SDS011;66327;50.096;8.498;2023-12-07T13:06:44;20.77;;;8.60;;
77202;SDS011;66327;50.096;8.498;2023-12-07T13:09:11;29.45;;;10.60;;
77202;SDS011;66327;50.096;8.498;2023-12-07T13:11:37;19.60;;;8.25;;
77202;SDS011;66327;50.096;8.498;2023-12-07T13:14:03;29.60;;;9.52;;
77202;SDS011;66327;50.096;8.498;2023-12-07T13:16:33;23.15;;;9.25;;
77202;SDS011;66327;50.096;8.498;2023-12-07T13:18:59;19.70;;;8.68;;
77202;SDS011;66327;50.096;8.498;2023-12-07T13:21:26;25.17;;;10.18;;
77202;SDS011;66327;50.096;8.498;2023-12-07T13:23:52;33.28;;;11.55;;
77202;SDS011;66327;50.096;8.498;2023-12-07T13:26:19;23.63;;;9.25;;
77202;SDS011;66327;50.096;8.498;2023-12-07T13:28:45;22.25;;;9.63;;
77202;SDS011;66327;50.096;8.498;2023-12-07T13:31:11;25.92;;;10.45;;
77202;SDS011;66327;50.096;8.498;2023-12-07T13:33:38;17.73;;;7.55;;
77202;SDS011;66327;50.096;8.498;2023-12-07T13:36:18;17.42;;;6.05;;
77202;SDS011;66327;50.096;8.498;2023-12-07T13:38:45;15.63;;;7.75;;
77202;SDS011;66327;50.096;8.498;2023-12-07T13:41:13;24.65;;;8.98;;
77202;SDS011;66327;50.096;8.498;2023-12-07T13:43:39;18.40;;;8.75;;
77202;SDS011;66327;50.096;8.498;2023-12-07T13:46:08;27.50;;;9.88;;
77202;SDS011;66327;50.096;8.498;2023-12-07T13:48:35;26.35;;;9.48;;
77202;SDS011;66327;50.096;8.498;2023-12-07T13:51:01;15.65;;;8.15;;
77202;SDS011;66327;50.096;8.498;2023-12-07T13:53:28;20.83;;;9.80;;
77202;SDS011;66327;50.096;8.498;2023-12-07T13:55:55;25.13;;;9.70;;
77202;SDS011;66327;50.096;8.498;2023-12-07T13:58:21;19.25;;;8.07;;
77202;SDS011;66327;50.096;8.498;2023-12-07T14:00:48;25.83;;;9.80;;
77202;SDS011;66327;50.096;8.498;2023-12-07T14:03:14;28.88;;;10.05;;
77202;SDS011;66327;50.096;8.498;2023-12-07T14:05:40;29.65;;;10.05;;
77202;SDS011;66327;50.096;8.498;2023-12-07T14:08:07;33.55;;;13.10;;
77202;SDS011;66327;50.096;8.498;2023-12-07T14:10:34;21.40;;;7.95;;
77202;SDS011;66327;50.096;8.498;2023-12-07T14:13:01;15.07;;;5.85;;
77202;SDS011;66327;50.096;8.498;2023-12-07T14:15:27;23.08;;;10.52;;
77202;SDS011;66327;50.096;8.498;2023-12-07T14:18:09;27.60;;;11.43;;
77202;SDS011;66327;50.096;8.498;2023-12-07T14:20:36;28.95;;;11.38;;
77202;SDS011;66327;50.096;8.498;2023-12-07T14:23:22;31.20;;;12.73;;
77202;SDS011;66327;50.096;8.498;2023-12-07T14:25:49;30.88;;;9.95;;
77202;SDS011;66327;50.096;8.498;2023-12-07T14:28:17;43.45;;;13.20;;
77202;SDS011;66327;50.096;8.498;2023-12-07T14:30:44;41.50;;;13.25;;
77202;SDS011;66327;50.096;8.498;2023-12-07T14:33:10;35.85;;;13.88;;
77202;SDS011;66327;50.096;8.498;2023-12-07T14:35:37;41.88;;;15.48;;
77202;SDS011;66327;50.096;8.498;2023-12-07T14:38:04;39.47;;;15.10;;
77202;SDS011;66327;50.096;8.498;2023-12-07T14:40:30;38.22;;;12.77;;
77202;SDS011;66327;50.096;8.498;2023-12-07T14:42:57;35.92;;;12.80;;
77202;SDS011;66327;50.096;8.498;2023-12-07T14:45:23;39.97;;;13.55;;